sensor_id;sensor_type;location;lat;lon;timestamp;pressure;altitude;pressure_sealevel;temperature;humidity
66668;BME280;57205;51.438;-2.006;2022-08-21T00:01:16;100903.56;;;16.58;73.88
66668;BME280;57205;51.438;-2.006;2022-08-21T00:03:42;100894.75;;;16.52;73.79
66668;BME280;57205;51.438;-2.006;2022-08-21T00:06:07;100895.03;;;16.51;74.01
66668;BME280;57205;51.438;-2.006;2022-08-21T00:08:33;100887.78;;;16.46;74.22
66668;BME280;57205;51.438;-2.006;2022-08-21T00:10:58;100883.28;;;16.42;74.35
66668;BME280;57205;51.438;-2.006;2022-08-21T00:13:24;100882.25;;;16.38;74.59
66668;BME280;57205;51.438;-2.006;2022-08-21T00:15:50;100873.66;;;16.36;74.53
66668;BME280;57205;51.438;-2.006;2022-08-21T00:18:17;100875.53;;;16.35;74.30
66668;BME280;57205;51.438;-2.006;2022-08-21T00:20:44;100879.94;;;16.31;74.78
66668;BME280;57205;51.438;-2.006;2022-08-21T00:23:10;100872.13;;;16.30;74.55
66668;BME280;57205;51.438;-2.006;2022-08-21T00:25:36;100870.34;;;16.25;74.33
66668;BME280;57205;51.438;-2.006;2022-08-21T00:28:02;100877.50;;;16.16;74.75
66668;BME280;57205;51.438;-2.006;2022-08-21T00:30:28;100877.00;;;16.14;74.98
66668;BME280;57205;51.438;-2.006;2022-08-21T00:32:55;100869.25;;;16.08;75.31
66668;BME280;57205;51.438;-2.006;2022-08-21T00:35:25;100876.34;;;16.04;75.46
66668;BME280;57205;51.438;-2.006;2022-08-21T00:37:51;100877.75;;;16.01;75.24
66668;BME280;57205;51.438;-2.006;2022-08-21T00:40:48;100879.34;;;16.02;75.41
66668;BME280;57205;51.438;-2.006;2022-08-21T00:43:11;100873.13;;;16.02;75.37
66668;BME280;57205;51.438;-2.006;2022-08-21T00:45:37;100883.69;;;15.98;75.30
66668;BME280;57205;51.438;-2.006;2022-08-21T00:48:04;100875.09;;;15.96;75.49
66668;BME280;57205;51.438;-2.006;2022-08-21T00:50:32;100877.00;;;15.96;75.90
66668;BME280;57205;51.438;-2.006;2022-08-21T00:52:59;100875.41;;;15.95;75.74
66668;BME280;57205;51.438;-2.006;2022-08-21T00:55:27;100875.19;;;15.91;75.67
66668;BME280;57205;51.438;-2.006;2022-08-21T00:57:55;100869.78;;;15.91;75.65
66668;BME280;57205;51.438;-2.006;2022-08-21T01:00:27;100875.19;;;15.91;76.02
66668;BME280;57205;51.438;-2.006;2022-08-21T01:02:55;100877.88;;;15.91;75.98
66668;BME280;57205;51.438;-2.006;2022-08-21T01:05:20;100876.34;;;15.85;75.79
66668;BME280;57205;51.438;-2.006;2022-08-21T01:07:46;100874.75;;;15.84;76.12
66668;BME280;57205;51.438;-2.006;2022-08-21T01:10:12;100885.56;;;15.84;76.13
66668;BME280;57205;51.438;-2.006;2022-08-21T01:12:38;100883.66;;;15.85;76.10
66668;BME280;57205;51.438;-2.006;2022-08-21T01:15:10;100888.81;;;15.81;76.43
66668;BME280;57205;51.438;-2.006;2022-08-21T01:17:39;100886.41;;;15.80;75.98
66668;BME280;57205;51.438;-2.006;2022-08-21T01:20:06;100887.53;;;15.79;75.96
66668;BME280;57205;51.438;-2.006;2022-08-21T01:22:33;100889.69;;;15.77;76.34
66668;BME280;57205;51.438;-2.006;2022-08-21T01:24:59;100886.28;;;15.71;76.19
66668;BME280;57205;51.438;-2.006;2022-08-21T01:27:24;100886.88;;;15.68;76.46
66668;BME280;57205;51.438;-2.006;2022-08-21T01:29:57;100881.00;;;15.61;76.64
66668;BME280;57205;51.438;-2.006;2022-08-21T01:32:23;100887.81;;;15.58;77.03
66668;BME280;57205;51.438;-2.006;2022-08-21T01:34:51;100890.78;;;15.57;76.70
66668;BME280;57205;51.438;-2.006;2022-08-21T01:37:19;100894.56;;;15.56;77.15
66668;BME280;57205;51.438;-2.006;2022-08-21T01:39:45;100882.69;;;15.57;77.27
66668;BME280;57205;51.438;-2.006;2022-08-21T01:42:11;100884.06;;;15.54;77.30
66668;BME280;57205;51.438;-2.006;2022-08-21T01:44:37;100883.56;;;15.52;77.27
66668;BME280;57205;51.438;-2.006;2022-08-21T01:47:06;100884.63;;;15.51;77.11
66668;BME280;57205;51.438;-2.006;2022-08-21T01:49:34;100887.13;;;15.48;77.42
66668;BME280;57205;51.438;-2.006;2022-08-21T01:52:00;100882.03;;;15.46;77.39
66668;BME280;57205;51.438;-2.006;2022-08-21T01:54:26;100873.13;;;15.46;77.46
66668;BME280;57205;51.438;-2.006;2022-08-21T01:56:52;100876.16;;;15.39;77.54
66668;BME280;57205;51.438;-2.006;2022-08-21T01:59:20;100876.50;;;15.33;78.13
66668;BME280;57205;51.438;-2.006;2022-08-21T02:01:46;100874.91;;;15.32;77.85
66668;BME280;57205;51.438;-2.006;2022-08-21T02:04:12;100866.38;;;15.25;77.97
66668;BME280;57205;51.438;-2.006;2022-08-21T02:06:38;100876.34;;;15.24;78.22
66668;BME280;57205;51.438;-2.006;2022-08-21T02:09:05;100867.44;;;15.24;78.03
66668;BME280;57205;51.438;-2.006;2022-08-21T02:11:32;100863.72;;;15.20;78.08
66668;BME280;57205;51.438;-2.006;2022-08-21T02:13:57;100868.09;;;15.16;78.43
66668;BME280;57205;51.438;-2.006;2022-08-21T02:16:23;100865.66;;;15.14;78.52
66668;BME280;57205;51.438;-2.006;2022-08-21T02:18:48;100852.25;;;15.09;78.75
66668;BME280;57205;51.438;-2.006;2022-08-21T02:21:14;100856.84;;;15.09;78.90
66668;BME280;57205;51.438;-2.006;2022-08-21T02:23:40;100854.72;;;15.06;79.06
66668;BME280;57205;51.438;-2.006;2022-08-21T02:26:07;100860.13;;;15.06;78.88
66668;BME280;57205;51.438;-2.006;2022-08-21T02:28:34;100855.03;;;15.04;78.84
66668;BME280;57205;51.438;-2.006;2022-08-21T02:31:00;100853.19;;;15.00;78.93
66668;BME280;57205;51.438;-2.006;2022-08-21T02:33:26;100859.38;;;15.00;79.00
66668;BME280;57205;51.438;-2.006;2022-08-21T02:35:53;100859.09;;;15.02;79.02
66668;BME280;57205;51.438;-2.006;2022-08-21T02:38:22;100866.34;;;15.01;79.28
66668;BME280;57205;51.438;-2.006;2022-08-21T02:40:50;100866.09;;;15.03;79.12
66668;BME280;57205;51.438;-2.006;2022-08-21T02:43:16;100864.69;;;15.05;78.97
66668;BME280;57205;51.438;-2.006;2022-08-21T02:45:43;100869.84;;;15.07;79.12
66668;BME280;57205;51.438;-2.006;2022-08-21T02:48:12;100867.69;;;15.04;79.28
66668;BME280;57205;51.438;-2.006;2022-08-21T02:50:43;100872.03;;;15.00;79.44
66668;BME280;57205;51.438;-2.006;2022-08-21T02:53:10;100875.56;;;15.00;79.47
66668;BME280;57205;51.438;-2.006;2022-08-21T02:55:38;100872.28;;;15.03;79.31
66668;BME280;57205;51.438;-2.006;2022-08-21T02:58:06;100872.00;;;15.05;79.58
66668;BME280;57205;51.438;-2.006;2022-08-21T03:00:33;100867.63;;;15.09;79.23
66668;BME280;57205;51.438;-2.006;2022-08-21T03:02:59;100869.25;;;15.10;79.45
66668;BME280;57205;51.438;-2.006;2022-08-21T03:05:26;100874.63;;;15.10;79.31
66668;BME280;57205;51.438;-2.006;2022-08-21T03:07:53;100867.06;;;15.12;79.45
66668;BME280;57205;51.438;-2.006;2022-08-21T03:10:19;100864.88;;;15.14;79.41
66668;BME280;57205;51.438;-2.006;2022-08-21T03:12:46;100864.88;;;15.14;79.75
66668;BME280;57205;51.438;-2.006;2022-08-21T03:15:16;100861.31;;;15.18;79.60
66668;BME280;57205;51.438;-2.006;2022-08-21T03:17:43;100855.13;;;15.18;79.91
66668;BME280;57205;51.438;-2.006;2022-08-21T03:20:09;100859.13;;;15.20;79.65
66668;BME280;57205;51.438;-2.006;2022-08-21T03:22:35;100859.88;;;15.26;79.82
66668;BME280;57205;51.438;-2.006;2022-08-21T03:25:01;100853.41;;;15.27;79.31
66668;BME280;57205;51.438;-2.006;2022-08-21T03:27:28;100853.09;;;15.28;79.65
66668;BME280;57205;51.438;-2.006;2022-08-21T03:29:54;100846.06;;;15.32;79.33
66668;BME280;57205;51.438;-2.006;2022-08-21T03:32:20;100848.44;;;15.34;79.27
66668;BME280;57205;51.438;-2.006;2022-08-21T03:34:46;100852.75;;;15.35;79.22
66668;BME280;57205;51.438;-2.006;2022-08-21T03:37:13;100845.75;;;15.34;79.41
66668;BME280;57205;51.438;-2.006;2022-08-21T03:39:39;100850.03;;;15.35;79.26
66668;BME280;57205;51.438;-2.006;2022-08-21T03:42:05;100847.41;;;15.30;79.18
66668;BME280;57205;51.438;-2.006;2022-08-21T03:44:32;100842.03;;;15.30;79.31
66668;BME280;57205;51.438;-2.006;2022-08-21T03:46:57;100832.56;;;15.32;79.25
66668;BME280;57205;51.438;-2.006;2022-08-21T03:49:24;100843.28;;;15.37;78.69
66668;BME280;57205;51.438;-2.006;2022-08-21T03:51:49;100849.25;;;15.34;79.17
66668;BME280;57205;51.438;-2.006;2022-08-21T03:54:15;100843.06;;;15.34;79.12
66668;BME280;57205;51.438;-2.006;2022-08-21T03:56:40;100854.38;;;15.36;79.16
66668;BME280;57205;51.438;-2.006;2022-08-21T03:59:06;100848.97;;;15.36;78.88
66668;BME280;57205;51.438;-2.006;2022-08-21T04:01:31;100846.78;;;15.38;79.21
66668;BME280;57205;51.438;-2.006;2022-08-21T04:03:57;100852.47;;;15.36;79.09
66668;BME280;57205;51.438;-2.006;2022-08-21T04:06:23;100848.09;;;15.40;79.50
66668;BME280;57205;51.438;-2.006;2022-08-21T04:08:49;100835.50;;;15.36;79.37
66668;BME280;57205;51.438;-2.006;2022-08-21T04:11:14;100837.59;;;15.39;78.99
66668;BME280;57205;51.438;-2.006;2022-08-21T04:13:40;100833.25;;;15.43;79.24
66668;BME280;57205;51.438;-2.006;2022-08-21T04:16:06;100832.75;;;15.41;79.01
66668;BME280;57205;51.438;-2.006;2022-08-21T04:18:31;100847.31;;;15.40;79.32
66668;BME280;57205;51.438;-2.006;2022-08-21T04:20:58;100842.69;;;15.40;79.14
66668;BME280;57205;51.438;-2.006;2022-08-21T04:23:24;100841.69;;;15.36;79.36
66668;BME280;57205;51.438;-2.006;2022-08-21T04:25:55;100840.28;;;15.39;79.36
66668;BME280;57205;51.438;-2.006;2022-08-21T04:28:22;100844.66;;;15.35;79.29
66668;BME280;57205;51.438;-2.006;2022-08-21T04:30:48;100840.16;;;15.30;79.63
66668;BME280;57205;51.438;-2.006;2022-08-21T04:33:15;100840.44;;;15.29;79.46
66668;BME280;57205;51.438;-2.006;2022-08-21T04:35:40;100844.50;;;15.26;79.54
66668;BME280;57205;51.438;-2.006;2022-08-21T04:38:07;100845.84;;;15.29;79.38
66668;BME280;57205;51.438;-2.006;2022-08-21T04:40:33;100856.09;;;15.27;79.60
66668;BME280;57205;51.438;-2.006;2022-08-21T04:43:02;100856.41;;;15.25;79.78
66668;BME280;57205;51.438;-2.006;2022-08-21T04:45:34;100868.47;;;15.28;79.73
66668;BME280;57205;51.438;-2.006;2022-08-21T04:48:02;100869.00;;;15.30;79.41
66668;BME280;57205;51.438;-2.006;2022-08-21T04:50:43;100869.28;;;15.28;79.63
66668;BME280;57205;51.438;-2.006;2022-08-21T04:53:14;100872.78;;;15.29;79.32
66668;BME280;57205;51.438;-2.006;2022-08-21T04:55:42;100875.72;;;15.32;79.66
66668;BME280;57205;51.438;-2.006;2022-08-21T04:58:10;100878.97;;;15.29;79.76
66668;BME280;57205;51.438;-2.006;2022-08-21T05:00:39;100897.56;;;15.31;79.39
66668;BME280;57205;51.438;-2.006;2022-08-21T05:03:06;100899.97;;;15.32;79.45
66668;BME280;57205;51.438;-2.006;2022-08-21T05:05:33;100901.88;;;15.32;79.13
66668;BME280;57205;51.438;-2.006;2022-08-21T05:08:01;100901.88;;;15.32;79.18
66668;BME280;57205;51.438;-2.006;2022-08-21T05:10:27;100898.34;;;15.31;79.75
66668;BME280;57205;51.438;-2.006;2022-08-21T05:12:53;100912.13;;;15.30;79.63
66668;BME280;57205;51.438;-2.006;2022-08-21T05:15:20;100910.25;;;15.30;79.69
66668;BME280;57205;51.438;-2.006;2022-08-21T05:17:46;100915.34;;;15.32;79.50
66668;BME280;57205;51.438;-2.006;2022-08-21T05:20:13;100916.16;;;15.32;79.63
66668;BME280;57205;51.438;-2.006;2022-08-21T05:22:40;100912.34;;;15.33;79.54
66668;BME280;57205;51.438;-2.006;2022-08-21T05:25:06;100910.97;;;15.36;79.61
66668;BME280;57205;51.438;-2.006;2022-08-21T05:27:32;100909.88;;;15.37;79.50
66668;BME280;57205;51.438;-2.006;2022-08-21T05:29:58;100892.63;;;15.38;79.44
66668;BME280;57205;51.438;-2.006;2022-08-21T05:32:25;100879.66;;;15.40;79.18
66668;BME280;57205;51.438;-2.006;2022-08-21T05:34:53;100885.00;;;15.45;79.26
66668;BME280;57205;51.438;-2.006;2022-08-21T05:37:18;100886.56;;;15.51;78.96
66668;BME280;57205;51.438;-2.006;2022-08-21T05:39:44;100893.41;;;15.62;78.38
66668;BME280;57205;51.438;-2.006;2022-08-21T05:42:09;100886.41;;;15.61;77.98
66668;BME280;57205;51.438;-2.006;2022-08-21T05:44:35;100882.25;;;15.69;77.97
66668;BME280;57205;51.438;-2.006;2022-08-21T05:47:06;100879.72;;;15.77;77.55
66668;BME280;57205;51.438;-2.006;2022-08-21T05:49:31;100873.59;;;15.90;77.03
66668;BME280;57205;51.438;-2.006;2022-08-21T05:51:57;100875.25;;;16.05;76.76
66668;BME280;57205;51.438;-2.006;2022-08-21T05:54:22;100872.00;;;16.21;75.79
66668;BME280;57205;51.438;-2.006;2022-08-21T05:56:48;100870.75;;;16.32;75.05
66668;BME280;57205;51.438;-2.006;2022-08-21T05:59:13;100874.69;;;16.40;74.87
66668;BME280;57205;51.438;-2.006;2022-08-21T06:01:39;100868.88;;;16.46;74.45
66668;BME280;57205;51.438;-2.006;2022-08-21T06:04:06;100873.94;;;16.53;74.25
66668;BME280;57205;51.438;-2.006;2022-08-21T06:06:32;100885.81;;;16.52;74.38
66668;BME280;57205;51.438;-2.006;2022-08-21T06:08:58;100882.34;;;16.51;74.37
66668;BME280;57205;51.438;-2.006;2022-08-21T06:11:23;100889.75;;;16.59;73.63
66668;BME280;57205;51.438;-2.006;2022-08-21T06:13:49;100886.97;;;16.65;73.71
66668;BME280;57205;51.438;-2.006;2022-08-21T06:16:15;100889.88;;;16.68;73.75
66668;BME280;57205;51.438;-2.006;2022-08-21T06:18:42;100884.88;;;16.75;73.44
66668;BME280;57205;51.438;-2.006;2022-08-21T06:21:08;100882.59;;;16.82;73.14
66668;BME280;57205;51.438;-2.006;2022-08-21T06:23:34;100891.91;;;16.90;72.38
66668;BME280;57205;51.438;-2.006;2022-08-21T06:26:04;100880.91;;;17.00;72.65
66668;BME280;57205;51.438;-2.006;2022-08-21T06:28:31;100880.81;;;17.18;71.58
66668;BME280;57205;51.438;-2.006;2022-08-21T06:30:57;100876.59;;;17.26;70.77
66668;BME280;57205;51.438;-2.006;2022-08-21T06:33:23;100875.09;;;17.20;70.72
66668;BME280;57205;51.438;-2.006;2022-08-21T06:35:49;100868.97;;;17.14;70.75
66668;BME280;57205;51.438;-2.006;2022-08-21T06:38:14;100873.69;;;17.09;71.27
66668;BME280;57205;51.438;-2.006;2022-08-21T06:40:40;100866.47;;;17.04;71.47
66668;BME280;57205;51.438;-2.006;2022-08-21T06:43:09;100867.47;;;16.95;71.94
66668;BME280;57205;51.438;-2.006;2022-08-21T06:45:35;100857.06;;;16.88;72.02
66668;BME280;57205;51.438;-2.006;2022-08-21T06:48:01;100852.34;;;16.80;72.79
66668;BME280;57205;51.438;-2.006;2022-08-21T06:50:26;100852.16;;;16.77;72.51
66668;BME280;57205;51.438;-2.006;2022-08-21T06:53:10;100854.66;;;16.73;72.57
66668;BME280;57205;51.438;-2.006;2022-08-21T06:55:36;100851.06;;;16.78;72.76
66668;BME280;57205;51.438;-2.006;2022-08-21T06:58:02;100862.44;;;16.75;72.90
66668;BME280;57205;51.438;-2.006;2022-08-21T07:00:28;100862.97;;;16.77;72.51
66668;BME280;57205;51.438;-2.006;2022-08-21T07:02:53;100849.75;;;16.75;72.90
66668;BME280;57205;51.438;-2.006;2022-08-21T07:05:19;100855.34;;;16.79;72.84
66668;BME280;57205;51.438;-2.006;2022-08-21T07:07:45;100846.44;;;16.78;72.59
66668;BME280;57205;51.438;-2.006;2022-08-21T07:10:11;100851.53;;;16.80;72.64
66668;BME280;57205;51.438;-2.006;2022-08-21T07:12:37;100849.84;;;16.84;72.54
66668;BME280;57205;51.438;-2.006;2022-08-21T07:15:03;100847.66;;;16.86;72.44
66668;BME280;57205;51.438;-2.006;2022-08-21T07:17:28;100850.53;;;16.89;72.51
66668;BME280;57205;51.438;-2.006;2022-08-21T07:19:54;100844.75;;;16.96;72.17
66668;BME280;57205;51.438;-2.006;2022-08-21T07:22:20;100839.25;;;17.01;72.07
66668;BME280;57205;51.438;-2.006;2022-08-21T07:24:45;100836.84;;;17.13;71.75
66668;BME280;57205;51.438;-2.006;2022-08-21T07:27:12;100846.53;;;17.27;71.15
66668;BME280;57205;51.438;-2.006;2022-08-21T07:29:38;100846.19;;;17.56;70.34
66668;BME280;57205;51.438;-2.006;2022-08-21T07:32:05;100847.91;;;18.10;68.90
66668;BME280;57205;51.438;-2.006;2022-08-21T07:34:30;100850.66;;;18.63;67.07
66668;BME280;57205;51.438;-2.006;2022-08-21T07:36:57;100849.44;;;19.25;64.52
66668;BME280;57205;51.438;-2.006;2022-08-21T07:39:24;100850.66;;;19.92;62.30
66668;BME280;57205;51.438;-2.006;2022-08-21T07:41:50;100850.91;;;20.42;59.94
66668;BME280;57205;51.438;-2.006;2022-08-21T07:44:16;100857.22;;;20.80;58.44
66668;BME280;57205;51.438;-2.006;2022-08-21T07:46:41;100854.72;;;20.96;57.94
66668;BME280;57205;51.438;-2.006;2022-08-21T07:49:07;100855.25;;;20.89;57.50
66668;BME280;57205;51.438;-2.006;2022-08-21T07:51:32;100856.41;;;20.80;57.82
66668;BME280;57205;51.438;-2.006;2022-08-21T07:53:59;100880.16;;;20.62;58.26
66668;BME280;57205;51.438;-2.006;2022-08-21T07:56:26;100872.06;;;20.28;59.75
66668;BME280;57205;51.438;-2.006;2022-08-21T07:58:54;100882.44;;;20.00;60.64
66668;BME280;57205;51.438;-2.006;2022-08-21T08:01:22;100886.44;;;19.94;61.57
66668;BME280;57205;51.438;-2.006;2022-08-21T08:03:48;100889.94;;;19.86;61.67
66668;BME280;57205;51.438;-2.006;2022-08-21T08:06:13;100890.91;;;19.73;61.76
66668;BME280;57205;51.438;-2.006;2022-08-21T08:08:41;100896.94;;;19.53;62.17
66668;BME280;57205;51.438;-2.006;2022-08-21T08:11:08;100898.19;;;19.38;62.58
66668;BME280;57205;51.438;-2.006;2022-08-21T08:13:41;100901.63;;;19.30;63.01
66668;BME280;57205;51.438;-2.006;2022-08-21T08:16:07;100905.09;;;19.14;63.17
66668;BME280;57205;51.438;-2.006;2022-08-21T08:18:32;100914.47;;;18.99;63.61
66668;BME280;57205;51.438;-2.006;2022-08-21T08:20:57;100916.81;;;18.92;64.21
66668;BME280;57205;51.438;-2.006;2022-08-21T08:23:23;100917.28;;;18.86;64.54
66668;BME280;57205;51.438;-2.006;2022-08-21T08:25:48;100913.59;;;18.82;64.29
66668;BME280;57205;51.438;-2.006;2022-08-21T08:28:14;100914.81;;;18.76;65.14
66668;BME280;57205;51.438;-2.006;2022-08-21T08:30:41;100924.75;;;18.80;64.72
66668;BME280;57205;51.438;-2.006;2022-08-21T08:33:07;100926.78;;;18.75;64.77
66668;BME280;57205;51.438;-2.006;2022-08-21T08:35:33;100924.38;;;18.73;65.36
66668;BME280;57205;51.438;-2.006;2022-08-21T08:37:58;100925.84;;;18.79;64.52
66668;BME280;57205;51.438;-2.006;2022-08-21T08:40:44;100933.13;;;18.70;64.68
66668;BME280;57205;51.438;-2.006;2022-08-21T08:43:12;100927.41;;;18.72;64.79
66668;BME280;57205;51.438;-2.006;2022-08-21T08:45:40;100932.16;;;18.66;64.97
66668;BME280;57205;51.438;-2.006;2022-08-21T08:48:10;100924.50;;;18.68;65.06
66668;BME280;57205;51.438;-2.006;2022-08-21T08:53:24;100914.81;;;18.76;64.92
66668;BME280;57205;51.438;-2.006;2022-08-21T08:55:51;100911.97;;;18.81;64.55
66668;BME280;57205;51.438;-2.006;2022-08-21T08:58:26;100912.97;;;18.93;63.69
66668;BME280;57205;51.438;-2.006;2022-08-21T09:00:54;100905.06;;;19.05;63.81
66668;BME280;57205;51.438;-2.006;2022-08-21T09:03:22;100903.13;;;19.36;62.88
66668;BME280;57205;51.438;-2.006;2022-08-21T09:06:36;100904.47;;;19.73;61.28
66668;BME280;57205;51.438;-2.006;2022-08-21T09:20:14;100893.78;;;21.38;55.70
66668;BME280;57205;51.438;-2.006;2022-08-21T09:22:45;100883.03;;;21.62;54.56
66668;BME280;57205;51.438;-2.006;2022-08-21T09:25:20;100882.53;;;21.68;54.57
66668;BME280;57205;51.438;-2.006;2022-08-21T09:27:47;100882.69;;;21.92;53.53
66668;BME280;57205;51.438;-2.006;2022-08-21T09:30:14;100885.34;;;22.01;53.32
66668;BME280;57205;51.438;-2.006;2022-08-21T09:32:40;100879.44;;;22.31;52.31
66668;BME280;57205;51.438;-2.006;2022-08-21T09:35:24;100877.69;;;22.92;50.30
66668;BME280;57205;51.438;-2.006;2022-08-21T09:37:57;100881.88;;;23.62;48.40
66668;BME280;57205;51.438;-2.006;2022-08-21T09:40:43;100872.41;;;23.99;46.92
66668;BME280;57205;51.438;-2.006;2022-08-21T09:45:34;100874.75;;;24.99;44.40
66668;BME280;57205;51.438;-2.006;2022-08-21T09:48:21;100872.44;;;25.17;43.17
66668;BME280;57205;51.438;-2.006;2022-08-21T09:50:49;100871.53;;;25.44;41.62
66668;BME280;57205;51.438;-2.006;2022-08-21T09:53:37;100880.03;;;25.39;41.23
66668;BME280;57205;51.438;-2.006;2022-08-21T09:56:18;100880.59;;;24.98;41.85
66668;BME280;57205;51.438;-2.006;2022-08-21T09:59:13;100879.25;;;25.07;42.64
66668;BME280;57205;51.438;-2.006;2022-08-21T10:01:48;100872.47;;;25.52;41.54
66668;BME280;57205;51.438;-2.006;2022-08-21T10:04:14;100871.56;;;26.01;40.03
66668;BME280;57205;51.438;-2.006;2022-08-21T10:06:40;100868.31;;;26.76;38.17
66668;BME280;57205;51.438;-2.006;2022-08-21T10:09:12;100870.03;;;27.07;37.13
66668;BME280;57205;51.438;-2.006;2022-08-21T10:11:53;100867.84;;;27.19;37.09
66668;BME280;57205;51.438;-2.006;2022-08-21T10:14:39;100863.09;;;26.90;36.46
66668;BME280;57205;51.438;-2.006;2022-08-21T10:17:19;100859.16;;;26.91;37.32
66668;BME280;57205;51.438;-2.006;2022-08-21T10:20:11;100868.09;;;26.84;37.41
66668;BME280;57205;51.438;-2.006;2022-08-21T10:27:40;100849.22;;;26.60;37.70
66668;BME280;57205;51.438;-2.006;2022-08-21T10:33:26;100861.13;;;27.39;36.17
66668;BME280;57205;51.438;-2.006;2022-08-21T10:36:08;100859.97;;;27.40;35.86
66668;BME280;57205;51.438;-2.006;2022-08-21T10:46:50;100861.13;;;27.39;35.62
66668;BME280;57205;51.438;-2.006;2022-08-21T10:54:48;100859.19;;;27.17;36.13
66668;BME280;57205;51.438;-2.006;2022-08-21T10:57:29;100846.13;;;26.84;36.20
66668;BME280;57205;51.438;-2.006;2022-08-21T11:00:09;100849.16;;;26.79;36.30
66668;BME280;57205;51.438;-2.006;2022-08-21T11:02:52;100848.00;;;26.58;37.18
66668;BME280;57205;51.438;-2.006;2022-08-21T11:05:31;100853.19;;;26.40;37.38
66668;BME280;57205;51.438;-2.006;2022-08-21T11:08:05;100844.41;;;26.35;37.68
66668;BME280;57205;51.438;-2.006;2022-08-21T11:13:40;100858.47;;;25.91;38.30
66668;BME280;57205;51.438;-2.006;2022-08-21T11:16:45;100862.25;;;25.68;39.28
66668;BME280;57205;51.438;-2.006;2022-08-21T11:19:35;100852.38;;;25.63;38.67
66668;BME280;57205;51.438;-2.006;2022-08-21T11:22:15;100850.78;;;25.62;38.90
66668;BME280;57205;51.438;-2.006;2022-08-21T11:27:19;100852.53;;;25.70;38.75
66668;BME280;57205;51.438;-2.006;2022-08-21T11:29:54;100860.28;;;25.49;39.35
66668;BME280;57205;51.438;-2.006;2022-08-21T11:35:25;100857.75;;;25.25;39.98
66668;BME280;57205;51.438;-2.006;2022-08-21T11:40:54;100855.28;;;25.20;39.85
66668;BME280;57205;51.438;-2.006;2022-08-21T11:48:56;100849.72;;;25.32;39.74
66668;BME280;57205;51.438;-2.006;2022-08-21T11:51:52;100846.97;;;25.32;40.24
66668;BME280;57205;51.438;-2.006;2022-08-21T11:54:31;100845.66;;;25.42;40.32
66668;BME280;57205;51.438;-2.006;2022-08-21T11:59:36;100827.13;;;25.54;38.81
66668;BME280;57205;51.438;-2.006;2022-08-21T12:02:11;100839.38;;;25.41;39.91
66668;BME280;57205;51.438;-2.006;2022-08-21T12:04:45;100836.88;;;25.36;39.57
66668;BME280;57205;51.438;-2.006;2022-08-21T12:07:14;100836.63;;;25.41;40.36
66668;BME280;57205;51.438;-2.006;2022-08-21T12:09:39;100835.72;;;25.53;39.54
66668;BME280;57205;51.438;-2.006;2022-08-21T12:12:12;100838.47;;;25.53;39.80
66668;BME280;57205;51.438;-2.006;2022-08-21T12:14:45;100840.47;;;25.56;39.44
66668;BME280;57205;51.438;-2.006;2022-08-21T12:17:22;100842.84;;;25.57;39.16
66668;BME280;57205;51.438;-2.006;2022-08-21T12:19:59;100838.88;;;25.74;38.11
66668;BME280;57205;51.438;-2.006;2022-08-21T12:22:37;100835.22;;;25.85;38.21
66668;BME280;57205;51.438;-2.006;2022-08-21T12:25:10;100831.47;;;25.74;38.39
66668;BME280;57205;51.438;-2.006;2022-08-21T12:28:03;100836.66;;;25.60;38.68
66668;BME280;57205;51.438;-2.006;2022-08-21T12:30:33;100835.94;;;25.63;39.10
66668;BME280;57205;51.438;-2.006;2022-08-21T12:33:03;100826.56;;;25.45;38.77
66668;BME280;57205;51.438;-2.006;2022-08-21T12:35:37;100832.66;;;25.39;38.04
66668;BME280;57205;51.438;-2.006;2022-08-21T12:38:20;100836.00;;;25.32;38.64
66668;BME280;57205;51.438;-2.006;2022-08-21T12:40:55;100831.84;;;25.38;38.21
66668;BME280;57205;51.438;-2.006;2022-08-21T12:43:35;100836.84;;;25.17;39.43
66668;BME280;57205;51.438;-2.006;2022-08-21T12:46:03;100833.44;;;25.24;38.73
66668;BME280;57205;51.438;-2.006;2022-08-21T12:53:48;100834.13;;;25.01;39.39
66668;BME280;57205;51.438;-2.006;2022-08-21T12:56:17;100825.97;;;25.05;39.35
66668;BME280;57205;51.438;-2.006;2022-08-21T12:58:52;100822.19;;;25.09;38.74
66668;BME280;57205;51.438;-2.006;2022-08-21T13:01:47;100823.63;;;25.38;38.99
66668;BME280;57205;51.438;-2.006;2022-08-21T13:04:25;100819.34;;;25.56;38.78
66668;BME280;57205;51.438;-2.006;2022-08-21T13:06:54;100809.75;;;25.85;38.05
66668;BME280;57205;51.438;-2.006;2022-08-21T13:09:28;100817.97;;;26.04;36.57
66668;BME280;57205;51.438;-2.006;2022-08-21T13:11:56;100805.75;;;26.21;37.24
66668;BME280;57205;51.438;-2.006;2022-08-21T13:16:47;100808.91;;;26.42;36.20
66668;BME280;57205;51.438;-2.006;2022-08-21T13:19:17;100800.59;;;26.38;36.41
66668;BME280;57205;51.438;-2.006;2022-08-21T13:21:45;100812.22;;;26.32;36.47
66668;BME280;57205;51.438;-2.006;2022-08-21T13:24:24;100807.59;;;26.36;36.27
66668;BME280;57205;51.438;-2.006;2022-08-21T13:26:51;100803.84;;;26.44;35.69
66668;BME280;57205;51.438;-2.006;2022-08-21T13:29:21;100803.22;;;26.54;36.01
66668;BME280;57205;51.438;-2.006;2022-08-21T13:31:53;100799.19;;;26.48;36.52
66668;BME280;57205;51.438;-2.006;2022-08-21T13:34:23;100800.66;;;26.64;35.65
66668;BME280;57205;51.438;-2.006;2022-08-21T13:36:52;100804.69;;;26.70;36.25
66668;BME280;57205;51.438;-2.006;2022-08-21T13:39:20;100791.56;;;26.60;36.23
66668;BME280;57205;51.438;-2.006;2022-08-21T13:41:50;100792.28;;;26.57;35.48
66668;BME280;57205;51.438;-2.006;2022-08-21T13:44:39;100786.38;;;26.55;35.79
66668;BME280;57205;51.438;-2.006;2022-08-21T13:47:06;100780.38;;;26.50;35.97
66668;BME280;57205;51.438;-2.006;2022-08-21T13:49:35;100776.38;;;26.44;36.31
66668;BME280;57205;51.438;-2.006;2022-08-21T13:52:03;100776.69;;;26.39;36.54
66668;BME280;57205;51.438;-2.006;2022-08-21T13:54:33;100770.91;;;26.44;36.77
66668;BME280;57205;51.438;-2.006;2022-08-21T13:56:59;100766.94;;;26.41;35.66